createdAt,value
2022-10-23T00:00:37.217Z,12.10
2022-10-23T00:03:04.007Z,12.02
2022-10-23T00:05:30.458Z,11.94
2022-10-23T00:07:58.777Z,11.91
2022-10-23T00:10:25.848Z,11.90
2022-10-23T00:12:52.299Z,11.90
2022-10-23T00:15:19.856Z,11.89
2022-10-23T00:17:46.242Z,11.87
2022-10-23T00:20:12.927Z,11.86
2022-10-23T00:22:39.328Z,11.86
2022-10-23T00:25:06.589Z,11.83
2022-10-23T00:27:33.045Z,11.81
2022-10-23T00:29:59.415Z,11.80
2022-10-23T00:32:25.919Z,11.79
2022-10-23T00:34:52.406Z,11.78
2022-10-23T00:37:18.915Z,11.77
2022-10-23T00:39:45.313Z,11.78
2022-10-23T00:42:17.003Z,11.78
2022-10-23T00:44:43.245Z,11.80
2022-10-23T00:47:09.875Z,11.80
2022-10-23T00:49:38.386Z,11.82
2022-10-23T00:52:07.112Z,11.77
2022-10-23T00:54:36.154Z,11.72
2022-10-23T00:57:04.322Z,11.67
2022-10-23T00:59:30.813Z,11.63
2022-10-23T01:01:57.429Z,11.58
2022-10-23T01:04:24.179Z,11.55
2022-10-23T01:07:16.147Z,11.54
2022-10-23T01:10:37.055Z,11.51
2022-10-23T01:13:24.203Z,11.46
2022-10-23T01:15:57.897Z,11.48
2022-10-23T01:18:45.429Z,11.49
2022-10-23T01:21:22.436Z,11.47
2022-10-23T01:24:02.859Z,11.42
2022-10-23T01:26:38.181Z,11.40
2022-10-23T01:29:17.599Z,11.37
2022-10-23T01:31:46.589Z,11.38
2022-10-23T01:34:21.562Z,11.41
2022-10-23T01:36:48.692Z,11.43
2022-10-23T01:39:17.741Z,11.45
2022-10-23T01:41:46.445Z,11.46
2022-10-23T01:44:24.868Z,11.45
2022-10-23T01:46:51.259Z,11.42
2022-10-23T01:49:17.705Z,11.41
2022-10-23T01:51:51.003Z,11.38
2022-10-23T01:54:17.409Z,11.34
2022-10-23T01:56:45.321Z,11.32
2022-10-23T01:59:17.313Z,11.28
2022-10-23T02:01:45.290Z,11.27
2022-10-23T02:04:13.230Z,11.18
2022-10-23T02:06:39.633Z,11.24
2022-10-23T02:09:06.108Z,11.25
2022-10-23T02:11:32.492Z,11.24
2022-10-23T02:14:10.903Z,11.27
2022-10-23T02:16:44.903Z,11.27
2022-10-23T02:19:17.254Z,11.25
2022-10-23T02:22:05.892Z,11.22
2022-10-23T02:24:38.918Z,11.21
2022-10-23T02:27:11.843Z,11.20
2022-10-23T02:29:44.700Z,11.19
2022-10-23T02:32:11.091Z,11.16
2022-10-23T02:34:37.485Z,11.13
2022-10-23T02:37:04.098Z,11.10
2022-10-23T02:39:30.471Z,11.08
2022-10-23T02:42:06.343Z,11.04
2022-10-23T02:44:53.919Z,10.98
2022-10-23T02:47:23.293Z,10.96
2022-10-23T02:50:04.803Z,10.93
2022-10-23T02:52:34.098Z,10.88
2022-10-23T02:55:09.590Z,10.83
2022-10-23T02:57:40.278Z,10.80
2022-10-23T03:00:19.929Z,10.82
2022-10-23T03:03:00.486Z,10.83
2022-10-23T03:05:30.356Z,10.80
2022-10-23T03:07:56.778Z,10.76
2022-10-23T03:10:23.258Z,10.73
2022-10-23T03:12:50.246Z,10.72
2022-10-23T03:15:16.796Z,10.70
2022-10-23T03:17:43.416Z,10.64
2022-10-23T03:20:10.254Z,10.67
2022-10-23T03:22:36.623Z,10.63
2022-10-23T03:25:03.227Z,10.59
2022-10-23T03:29:55.944Z,10.57
2022-10-23T03:32:22.315Z,10.54
2022-10-23T03:34:48.718Z,10.50
2022-10-23T03:37:15.149Z,10.48
2022-10-23T03:39:41.916Z,10.45
2022-10-23T03:42:08.288Z,10.45
2022-10-23T03:44:34.659Z,10.41
2022-10-23T03:47:01.066Z,10.38
2022-10-23T03:49:27.427Z,10.36
2022-10-23T03:51:53.833Z,10.35
2022-10-23T03:54:21.880Z,10.31
2022-10-23T03:56:50.496Z,10.32
2022-10-23T03:59:17.757Z,10.29
2022-10-23T04:01:44.268Z,10.28
2022-10-23T04:04:11.382Z,10.28
2022-10-23T04:06:37.810Z,10.23
2022-10-23T04:09:04.682Z,10.21
2022-10-23T04:11:31.174Z,10.22
2022-10-23T04:13:57.548Z,10.17
2022-10-23T04:16:24.164Z,10.15
2022-10-23T04:18:50.806Z,10.16
2022-10-23T04:21:17.248Z,10.12
2022-10-23T04:23:44.026Z,10.07
2022-10-23T04:26:10.453Z,10.04
2022-10-23T04:28:36.865Z,10.02
2022-10-23T04:31:03.288Z,10.05
2022-10-23T04:33:29.695Z,10.07
2022-10-23T04:35:56.319Z,10.03
2022-10-23T04:38:22.782Z,9.97
2022-10-23T04:40:49.215Z,9.97
2022-10-23T04:43:15.608Z,9.96
2022-10-23T04:45:42.010Z,9.94
2022-10-23T04:48:08.395Z,9.93
2022-10-23T04:50:34.800Z,9.91
2022-10-23T04:53:01.271Z,9.90
2022-10-23T04:55:27.673Z,9.86
2022-10-23T04:57:54.125Z,9.86
2022-10-23T05:00:20.660Z,9.84
2022-10-23T05:02:47.082Z,9.82
2022-10-23T05:05:13.467Z,9.82
2022-10-23T05:07:39.910Z,9.81
2022-10-23T05:10:06.686Z,9.79
2022-10-23T05:12:33.085Z,9.78
2022-10-23T05:14:59.464Z,9.76
2022-10-23T05:17:28.513Z,9.75
2022-10-23T05:19:55.467Z,9.74
2022-10-23T05:22:22.706Z,9.72
2022-10-23T05:24:50.591Z,9.73
2022-10-23T05:27:17.310Z,9.73
2022-10-23T05:29:43.684Z,9.73
2022-10-23T05:32:10.347Z,9.70
2022-10-23T05:34:36.780Z,9.72
2022-10-23T05:37:03.550Z,9.71
2022-10-23T05:39:30.000Z,9.70
2022-10-23T05:41:56.408Z,9.68
2022-10-23T05:44:22.842Z,9.67
2022-10-23T05:46:49.212Z,9.67
2022-10-23T05:49:15.592Z,9.67
2022-10-23T05:51:41.973Z,9.68
2022-10-23T05:54:08.445Z,9.69
2022-10-23T05:56:35.792Z,9.70
2022-10-23T05:59:02.226Z,9.72
2022-10-23T06:01:28.811Z,9.74
2022-10-23T06:03:55.288Z,9.74
2022-10-23T06:06:21.665Z,9.75
2022-10-23T06:08:48.042Z,9.76
2022-10-23T06:11:14.854Z,9.76
2022-10-23T06:13:44.871Z,9.78
2022-10-23T06:16:19.445Z,9.80
2022-10-23T06:18:46.069Z,9.82
2022-10-23T06:21:12.733Z,9.85
2022-10-23T06:23:39.582Z,9.87
2022-10-23T06:26:06.425Z,9.88
2022-10-23T06:28:32.837Z,9.89
2022-10-23T06:30:59.204Z,9.88
2022-10-23T06:33:25.608Z,9.91
2022-10-23T06:35:51.984Z,9.95
2022-10-23T06:38:18.394Z,9.99
2022-10-23T06:40:44.768Z,10.02
2022-10-23T06:43:11.248Z,10.05
2022-10-23T06:45:40.464Z,10.07
2022-10-23T06:48:06.892Z,10.07
2022-10-23T06:50:33.283Z,10.06
2022-10-23T06:52:59.906Z,10.08
2022-10-23T06:55:26.407Z,10.12
2022-10-23T06:57:53.484Z,10.15
2022-10-23T07:00:21.756Z,10.16
2022-10-23T07:02:48.135Z,10.17
2022-10-23T07:05:14.541Z,10.16
2022-10-23T07:07:40.911Z,10.17
2022-10-23T07:10:07.707Z,10.17
2022-10-23T07:12:34.124Z,10.27
2022-10-23T07:15:00.540Z,10.32
2022-10-23T07:17:28.614Z,10.38
2022-10-23T07:19:55.022Z,10.41
2022-10-23T07:22:21.403Z,10.45
2022-10-23T07:24:47.787Z,10.49
2022-10-23T07:27:14.180Z,10.55
2022-10-23T07:29:40.563Z,10.54
2022-10-23T07:32:06.956Z,10.55
2022-10-23T07:34:33.332Z,10.56
2022-10-23T07:36:59.706Z,10.63
2022-10-23T07:39:26.125Z,10.70
2022-10-23T07:41:52.494Z,10.79
2022-10-23T07:44:20.205Z,10.86
2022-10-23T07:46:48.433Z,10.95
2022-10-23T07:49:14.855Z,11.04
2022-10-23T07:51:41.323Z,11.13
2022-10-23T07:54:09.145Z,11.22
2022-10-23T07:56:35.531Z,11.32
2022-10-23T07:59:01.959Z,11.42
2022-10-23T08:01:32.243Z,11.50
2022-10-23T08:03:59.153Z,11.57
2022-10-23T08:06:25.557Z,11.61
2022-10-23T08:08:53.389Z,11.69
2022-10-23T08:11:21.657Z,11.77
2022-10-23T08:13:48.084Z,11.86
2022-10-23T08:16:14.456Z,11.94
2022-10-23T08:18:40.940Z,12.04
2022-10-23T08:21:07.310Z,12.14
2022-10-23T08:23:33.687Z,12.26
2022-10-23T08:26:00.958Z,12.38
2022-10-23T08:28:27.990Z,12.41
2022-10-23T08:30:54.627Z,12.44
2022-10-23T08:33:21.413Z,12.44
2022-10-23T08:35:47.818Z,12.47
2022-10-23T08:38:14.189Z,12.51
2022-10-23T08:40:47.110Z,12.55
2022-10-23T08:43:32.300Z,12.56
2022-10-23T08:46:01.291Z,12.61
2022-10-23T08:48:47.687Z,12.62
2022-10-23T08:51:18.041Z,12.66
2022-10-23T08:53:54.564Z,12.71
2022-10-23T08:56:23.165Z,12.74
2022-10-23T08:59:20.342Z,12.74
2022-10-23T09:01:47.811Z,12.74
2022-10-23T09:04:14.506Z,12.73
2022-10-23T09:06:59.039Z,12.75
2022-10-23T09:10:10.534Z,12.82
2022-10-23T09:12:39.800Z,12.83
2022-10-23T09:15:17.768Z,12.87
2022-10-23T09:17:44.500Z,12.92
2022-10-23T09:20:17.131Z,12.97
2022-10-23T09:22:43.852Z,13.05
2022-10-23T09:25:11.354Z,13.12
2022-10-23T09:27:37.926Z,13.23
2022-10-23T09:30:06.520Z,13.29
2022-10-23T09:32:38.947Z,13.36
2022-10-23T09:35:06.171Z,13.45
2022-10-23T09:37:33.245Z,13.50
2022-10-23T09:40:03.768Z,13.54
2022-10-23T09:42:30.144Z,13.57
2022-10-23T09:44:56.537Z,13.57
2022-10-23T09:47:24.423Z,13.58
2022-10-23T09:49:52.359Z,13.59
2022-10-23T09:52:18.620Z,13.62
2022-10-23T09:54:49.295Z,13.69
2022-10-23T09:57:23.310Z,13.73
2022-10-23T09:59:54.498Z,13.78
2022-10-23T10:02:28.848Z,13.82
2022-10-23T10:04:55.245Z,13.84
2022-10-23T10:07:31.153Z,13.89
2022-10-23T10:09:59.895Z,13.94
2022-10-23T10:12:35.321Z,14.00
2022-10-23T10:15:01.628Z,14.07
2022-10-23T10:17:55.546Z,14.09
2022-10-23T10:20:45.030Z,14.15
2022-10-23T10:23:23.781Z,14.21
2022-10-23T10:26:08.406Z,14.27
2022-10-23T10:28:41.036Z,14.27
2022-10-23T10:31:13.639Z,14.28
2022-10-23T10:33:55.061Z,14.29
2022-10-23T10:36:30.549Z,14.33
2022-10-23T10:39:00.702Z,14.35
2022-10-23T10:41:42.815Z,14.42
2022-10-23T10:44:12.919Z,14.48
2022-10-23T10:46:42.172Z,14.50
2022-10-23T10:49:18.039Z,14.54
2022-10-23T10:51:54.676Z,14.56
2022-10-23T10:54:30.710Z,14.60
2022-10-23T10:56:57.116Z,14.66
2022-10-23T10:59:24.735Z,14.72
2022-10-23T11:02:20.751Z,14.75
2022-10-23T11:04:47.089Z,14.77
2022-10-23T11:07:15.293Z,14.80
2022-10-23T11:09:42.118Z,14.83
2022-10-23T11:12:15.869Z,14.79
2022-10-23T11:14:42.305Z,14.81
2022-10-23T11:17:18.610Z,14.83
2022-10-23T11:19:55.656Z,14.86
2022-10-23T11:22:27.919Z,14.92
2022-10-23T11:25:16.879Z,15.02
2022-10-23T11:27:56.545Z,15.12
2022-10-23T11:30:27.387Z,15.18
2022-10-23T11:33:25.682Z,15.30
2022-10-23T11:36:10.553Z,15.40
2022-10-23T11:38:38.143Z,15.48
2022-10-23T11:41:26.448Z,15.56
2022-10-23T11:43:55.493Z,15.61
2022-10-23T11:46:21.744Z,15.70
2022-10-23T11:48:48.156Z,15.75
2022-10-23T11:51:36.510Z,15.84
2022-10-23T11:54:11.656Z,15.90
2022-10-23T11:56:38.827Z,15.91
2022-10-23T11:59:39.496Z,15.88
2022-10-23T12:02:24.283Z,15.92
2022-10-23T12:04:51.784Z,15.96
2022-10-23T12:07:28.912Z,16.08
2022-10-23T12:09:59.379Z,16.23
2022-10-23T12:12:29.951Z,16.35
2022-10-23T12:15:11.355Z,16.47
2022-10-23T12:17:38.162Z,16.52
2022-10-23T12:20:10.829Z,16.53
2022-10-23T12:23:18.403Z,16.57
2022-10-23T12:26:02.861Z,16.53
2022-10-23T12:28:32.060Z,16.43
2022-10-23T12:31:27.828Z,16.35
2022-10-23T12:34:10.097Z,16.29
2022-10-23T12:36:43.500Z,16.22
2022-10-23T12:39:26.571Z,16.19
2022-10-23T12:41:52.968Z,16.12
2022-10-23T12:44:19.385Z,16.09
2022-10-23T12:46:50.079Z,16.06
2022-10-23T12:49:21.350Z,16.06
2022-10-23T12:51:58.591Z,16.09
2022-10-23T12:54:25.148Z,16.08
2022-10-23T12:56:51.525Z,16.10
2022-10-23T12:59:20.516Z,16.08
2022-10-23T13:01:50.466Z,16.09
2022-10-23T13:04:29.690Z,16.06
2022-10-23T13:06:57.212Z,16.01
2022-10-23T13:09:37.857Z,15.98
2022-10-23T13:12:05.278Z,15.94
2022-10-23T13:14:43.687Z,15.87
2022-10-23T13:17:11.353Z,15.84
2022-10-23T13:19:37.839Z,15.83
2022-10-23T13:22:05.475Z,15.80
2022-10-23T13:24:32.051Z,15.80
2022-10-23T13:26:58.582Z,15.81
2022-10-23T13:29:33.859Z,15.81
2022-10-23T13:32:13.165Z,15.84
2022-10-23T13:34:41.667Z,15.85
2022-10-23T13:37:25.974Z,15.86
2022-10-23T13:40:19.937Z,15.85
2022-10-23T13:42:51.793Z,15.81
2022-10-23T13:45:25.314Z,15.78
2022-10-23T13:47:51.952Z,15.73
2022-10-23T13:50:18.714Z,15.75
2022-10-23T13:52:45.174Z,15.78
2022-10-23T13:55:23.316Z,15.79
2022-10-23T13:57:49.836Z,15.77
2022-10-23T14:00:16.615Z,15.76
2022-10-23T14:02:43.118Z,15.72
2022-10-23T14:05:11.691Z,15.68
2022-10-23T14:07:40.230Z,15.65
2022-10-23T14:10:06.848Z,15.62
2022-10-23T14:12:47.209Z,15.61
2022-10-23T14:15:15.039Z,15.58
2022-10-23T14:17:41.436Z,15.54
2022-10-23T14:20:08.597Z,15.51
2022-10-23T14:22:36.537Z,15.50
2022-10-23T14:25:02.981Z,15.46
2022-10-23T14:27:29.694Z,15.43
2022-10-23T14:29:56.234Z,15.41
2022-10-23T14:32:22.655Z,15.40
2022-10-23T14:34:52.977Z,15.37
2022-10-23T14:37:20.086Z,15.38
2022-10-23T14:39:50.020Z,15.35
2022-10-23T14:42:17.810Z,15.32
2022-10-23T14:44:44.296Z,15.28
2022-10-23T14:47:10.718Z,15.27
2022-10-23T14:49:37.263Z,15.27
2022-10-23T14:52:03.705Z,15.26
2022-10-23T14:54:30.181Z,15.25
2022-10-23T14:56:58.163Z,15.23
2022-10-23T14:59:24.551Z,15.19
2022-10-23T15:04:24.795Z,15.20
2022-10-23T15:06:51.198Z,15.16
2022-10-23T15:09:17.681Z,15.17
2022-10-23T15:11:44.081Z,15.19
2022-10-23T15:14:10.536Z,15.13
2022-10-23T15:16:36.938Z,15.12
2022-10-23T15:19:03.650Z,15.11
2022-10-23T15:21:30.029Z,15.07
2022-10-23T15:23:56.423Z,15.05
2022-10-23T15:26:22.797Z,15.01
2022-10-23T15:28:53.305Z,14.95
2022-10-23T15:31:28.764Z,14.90
2022-10-23T15:33:58.211Z,14.92
2022-10-23T15:36:24.779Z,14.85
2022-10-23T15:38:51.226Z,14.82
2022-10-23T15:41:21.077Z,14.82
2022-10-23T15:43:47.526Z,14.78
2022-10-23T15:46:14.007Z,14.74
2022-10-23T15:48:40.388Z,14.71
2022-10-23T15:51:06.782Z,14.72
2022-10-23T15:53:33.168Z,14.71
2022-10-23T15:55:59.575Z,14.69
2022-10-23T15:58:26.130Z,14.66
2022-10-23T16:00:52.555Z,14.66
2022-10-23T16:03:18.940Z,14.67
2022-10-23T16:05:45.332Z,14.64
2022-10-23T16:08:11.734Z,14.68
2022-10-23T16:10:41.539Z,14.67
2022-10-23T16:13:08.161Z,14.68
2022-10-23T16:15:37.609Z,14.66
2022-10-23T16:18:04.191Z,14.63
2022-10-23T16:20:30.636Z,14.61
2022-10-23T16:22:57.012Z,14.61
2022-10-23T16:25:23.438Z,14.65
2022-10-23T16:27:49.849Z,14.65
2022-10-23T16:30:16.242Z,14.63
2022-10-23T16:32:42.712Z,14.61
2022-10-23T16:35:12.317Z,14.55
2022-10-23T16:37:39.584Z,14.57
2022-10-23T16:40:06.569Z,14.59
2022-10-23T16:42:32.996Z,14.55
2022-10-23T16:44:59.456Z,14.53
2022-10-23T16:47:25.936Z,14.53
2022-10-23T16:49:52.419Z,14.54
2022-10-23T16:52:18.970Z,14.54
2022-10-23T16:54:45.459Z,14.53
2022-10-23T16:57:11.924Z,14.52
2022-10-23T16:59:38.341Z,14.50
2022-10-23T17:02:05.186Z,14.50
2022-10-23T17:04:31.688Z,14.48
2022-10-23T17:06:58.089Z,14.49
2022-10-23T17:09:24.702Z,14.49
2022-10-23T17:11:51.246Z,14.44
2022-10-23T17:14:18.439Z,14.43
2022-10-23T17:16:49.593Z,14.44
2022-10-23T17:19:43.422Z,14.39
2022-10-23T17:22:05.924Z,14.35
2022-10-23T17:24:32.282Z,14.32
2022-10-23T17:26:58.668Z,14.31
2022-10-23T17:29:25.095Z,14.31
2022-10-23T17:31:51.546Z,14.30
2022-10-23T17:34:23.566Z,14.27
2022-10-23T17:36:54.324Z,14.24
2022-10-23T17:39:22.880Z,14.25
2022-10-23T17:41:50.389Z,14.30
2022-10-23T17:44:16.900Z,14.28
2022-10-23T17:46:43.510Z,14.25
2022-10-23T17:49:10.084Z,14.20
2022-10-23T17:51:36.681Z,14.21
2022-10-23T17:54:05.390Z,14.22
2022-10-23T17:56:32.310Z,14.21
2022-10-23T17:59:04.563Z,14.19
2022-10-23T18:01:31.078Z,14.18
2022-10-23T18:04:00.104Z,14.18
2022-10-23T18:06:29.804Z,14.19
2022-10-23T18:08:56.336Z,14.17
2022-10-23T18:11:27.599Z,14.17
2022-10-23T18:13:54.360Z,14.16
2022-10-23T18:16:20.918Z,14.17
2022-10-23T18:18:47.494Z,14.19
2022-10-23T18:21:14.137Z,14.20
2022-10-23T18:23:40.775Z,14.20
2022-10-23T18:26:19.112Z,14.22
2022-10-23T18:28:46.190Z,14.22
2022-10-23T18:31:12.724Z,14.19
2022-10-23T18:33:39.222Z,14.19
2022-10-23T18:36:26.182Z,14.18
2022-10-23T18:38:52.773Z,14.18
2022-10-23T18:41:19.303Z,14.15
2022-10-23T18:43:45.939Z,14.14
2022-10-23T18:46:13.032Z,14.15
2022-10-23T18:48:39.570Z,14.14
2022-10-23T18:51:15.603Z,14.15
2022-10-23T18:53:42.499Z,14.12
2022-10-23T18:56:08.953Z,14.15
2022-10-23T18:58:36.414Z,14.16
2022-10-23T19:01:04.199Z,14.18
2022-10-23T19:03:30.678Z,14.17
2022-10-23T19:05:57.404Z,14.17
2022-10-23T19:08:23.870Z,14.17
2022-10-23T19:10:50.339Z,14.18
2022-10-23T19:13:16.732Z,14.18
2022-10-23T19:15:43.191Z,14.18
2022-10-23T19:18:09.580Z,14.20
2022-10-23T19:20:35.997Z,14.21
2022-10-23T19:23:02.400Z,14.22
2022-10-23T19:25:30.669Z,14.20
2022-10-23T19:27:57.353Z,14.19
2022-10-23T19:30:24.263Z,14.21
2022-10-23T19:32:50.727Z,14.19
2022-10-23T19:35:18.178Z,14.20
2022-10-23T19:37:44.989Z,14.21
2022-10-23T19:40:12.241Z,14.21
2022-10-23T19:42:39.379Z,14.22
2022-10-23T19:45:06.858Z,14.22
2022-10-23T19:47:34.704Z,14.22
2022-10-23T19:50:01.102Z,14.22
2022-10-23T19:52:27.546Z,14.21
2022-10-23T19:54:53.930Z,14.18
2022-10-23T19:57:22.587Z,14.16
2022-10-23T19:59:50.117Z,14.16
2022-10-23T20:02:17.306Z,14.15
2022-10-23T20:04:43.793Z,14.13
2022-10-23T20:07:10.199Z,14.13
2022-10-23T20:09:36.578Z,14.11
2022-10-23T20:12:03.118Z,14.12
2022-10-23T20:14:29.592Z,14.11
2022-10-23T20:16:56.263Z,14.11
2022-10-23T20:19:24.327Z,14.09
2022-10-23T20:21:50.744Z,14.06
2022-10-23T20:24:18.061Z,14.05
2022-10-23T20:26:52.149Z,14.03
2022-10-23T20:29:18.683Z,14.01
2022-10-23T20:31:45.174Z,14.00
2022-10-23T20:34:11.708Z,13.98
2022-10-23T20:36:42.386Z,14.00
2022-10-23T20:39:20.476Z,13.97
2022-10-23T20:41:46.875Z,13.97
2022-10-23T20:44:14.801Z,13.94
2022-10-23T20:46:41.495Z,13.88
2022-10-23T20:49:07.974Z,13.86
2022-10-23T20:51:34.363Z,13.86
2022-10-23T20:54:00.772Z,13.85
2022-10-23T20:56:29.100Z,13.83
2022-10-23T20:58:56.642Z,13.83
2022-10-23T21:01:23.142Z,13.83
2022-10-23T21:03:53.615Z,13.83
2022-10-23T21:06:20.015Z,13.85
2022-10-23T21:08:46.437Z,13.87
2022-10-23T21:11:13.935Z,13.91
2022-10-23T21:13:41.071Z,13.89
2022-10-23T21:16:15.134Z,13.89
2022-10-23T21:18:45.955Z,13.89
2022-10-23T21:21:17.171Z,13.88
2022-10-23T21:23:43.576Z,13.92
2022-10-23T21:26:09.978Z,13.94
2022-10-23T21:28:36.377Z,13.95
2022-10-23T21:31:06.822Z,14.03
2022-10-23T21:33:33.490Z,14.06
2022-10-23T21:36:12.815Z,14.09
2022-10-23T21:38:40.182Z,14.18
2022-10-23T21:41:07.439Z,14.21
2022-10-23T21:43:33.859Z,14.23
2022-10-23T21:46:07.155Z,14.21
2022-10-23T21:48:33.555Z,14.20
2022-10-23T21:51:00.041Z,14.22
2022-10-23T21:53:26.678Z,14.30
2022-10-23T21:55:53.097Z,14.31
2022-10-23T21:58:19.485Z,14.35
2022-10-23T22:00:45.880Z,14.36
2022-10-23T22:03:12.258Z,14.35
2022-10-23T22:05:38.634Z,14.38
2022-10-23T22:08:05.252Z,14.38
2022-10-23T22:10:31.724Z,14.40
2022-10-23T22:12:58.090Z,14.35
2022-10-23T22:15:24.475Z,14.30
2022-10-23T22:17:50.850Z,14.23
2022-10-23T22:20:17.265Z,14.24
2022-10-23T22:22:43.639Z,14.22
2022-10-23T22:25:10.040Z,14.16
2022-10-23T22:27:39.211Z,14.13
2022-10-23T22:30:05.987Z,14.17
2022-10-23T22:32:32.363Z,14.13
2022-10-23T22:34:58.771Z,14.10
2022-10-23T22:37:25.148Z,14.07
2022-10-23T22:39:52.103Z,14.04
2022-10-23T22:42:19.293Z,14.00
2022-10-23T22:44:45.697Z,13.93
2022-10-23T22:47:12.077Z,13.84
2022-10-23T22:49:38.488Z,13.81
2022-10-23T22:52:04.911Z,13.78
2022-10-23T22:54:31.437Z,13.75
2022-10-23T22:56:57.991Z,13.76
2022-10-23T22:59:24.356Z,13.77
2022-10-23T23:01:50.818Z,13.79
2022-10-23T23:04:36.676Z,13.76
2022-10-23T23:07:03.667Z,13.76
2022-10-23T23:09:30.056Z,13.79
2022-10-23T23:11:57.255Z,13.80
2022-10-23T23:14:24.517Z,13.85
2022-10-23T23:16:52.194Z,13.85
2022-10-23T23:19:18.611Z,13.84
2022-10-23T23:21:44.999Z,13.83
2022-10-23T23:24:11.683Z,13.86
2022-10-23T23:26:38.055Z,13.93
2022-10-23T23:29:04.429Z,13.99
2022-10-23T23:31:30.793Z,13.98
2022-10-23T23:33:57.238Z,13.95
2022-10-23T23:36:24.781Z,13.97
2022-10-23T23:38:51.451Z,13.98
2022-10-23T23:41:18.382Z,13.95
2022-10-23T23:43:44.858Z,13.95
2022-10-23T23:46:11.366Z,13.95
2022-10-23T23:48:38.013Z,13.95
2022-10-23T23:51:04.909Z,13.96
2022-10-23T23:53:31.279Z,13.97
2022-10-23T23:55:57.693Z,13.96
2022-10-23T23:58:24.194Z,13.98
